Bonair, Iowa
Current Conditions -  °F | °C
As of 6:15 AM on Monday 22 Dec 2014 (Local Time) from KFKA Reporting Station
Haze Haze  
Wind Chill: 25°   Ceiling: 400
Heat Index: 33°   Visibility: 3mi
Dew Point: 32°   Wind: 12mph
Humidity: 95%   Direction: 130°SE
Pressure: 29.73"   Gusts: 16mph
Location:  43.4648°N, 92.2573°W
Report Text: KFKA 221215Z AUTO 13010G14KT 3SM BR OVC004 01/00 A2973 RMK AO2 T00070000
Loading
Personal Weather Stations






























Interactive Weather Map New forecast layout! Learn more

10-Day Weather Forecast

Advertisements
Track Severe Weather on mobile